sensor_id;sensor_type;location;lat;lon;timestamp;pressure;altitude;pressure_sealevel;temperature;humidity
73671;BME280;61968;48.178;11.566;2022-08-30T00:00:39;96027.69;;;20.89;39.91
73671;BME280;61968;48.178;11.566;2022-08-30T00:03:24;96026.84;;;20.94;39.60
73671;BME280;61968;48.178;11.566;2022-08-30T00:05:52;96023.94;;;20.90;39.86
73671;BME280;61968;48.178;11.566;2022-08-30T00:08:19;96023.94;;;20.90;39.90
73671;BME280;61968;48.178;11.566;2022-08-30T00:10:46;96026.38;;;20.86;39.88
73671;BME280;61968;48.178;11.566;2022-08-30T00:13:15;96021.88;;;20.82;39.83
73671;BME280;61968;48.178;11.566;2022-08-30T00:15:42;96022.09;;;20.85;40.07
73671;BME280;61968;48.178;11.566;2022-08-30T00:18:09;96022.97;;;20.81;39.94
73671;BME280;61968;48.178;11.566;2022-08-30T00:20:37;96020.91;;;20.73;40.30
73671;BME280;61968;48.178;11.566;2022-08-30T00:23:04;96029.53;;;20.70;40.27
73671;BME280;61968;48.178;11.566;2022-08-30T00:25:31;96026.09;;;20.64;40.27
73671;BME280;61968;48.178;11.566;2022-08-30T00:27:58;96026.09;;;20.64;40.23
73671;BME280;61968;48.178;11.566;2022-08-30T00:30:25;96028.84;;;20.59;40.42
73671;BME280;61968;48.178;11.566;2022-08-30T00:32:51;96021.66;;;20.54;40.51
73671;BME280;61968;48.178;11.566;2022-08-30T00:35:20;96022.03;;;20.48;40.74
73671;BME280;61968;48.178;11.566;2022-08-30T00:37:48;96016.34;;;20.49;40.81
73671;BME280;61968;48.178;11.566;2022-08-30T00:40:16;96022.47;;;20.55;40.54
73671;BME280;61968;48.178;11.566;2022-08-30T00:42:45;96020.50;;;20.60;40.33
73671;BME280;61968;48.178;11.566;2022-08-30T00:45:15;96018.63;;;20.61;40.38
73671;BME280;61968;48.178;11.566;2022-08-30T00:47:43;96011.94;;;20.58;40.49
73671;BME280;61968;48.178;11.566;2022-08-30T00:50:11;96014.94;;;20.57;40.48
73671;BME280;61968;48.178;11.566;2022-08-30T00:52:40;96012.72;;;20.59;40.40
73671;BME280;61968;48.178;11.566;2022-08-30T00:55:09;96011.13;;;20.58;40.48
73671;BME280;61968;48.178;11.566;2022-08-30T00:57:38;96013.31;;;20.56;40.44
73671;BME280;61968;48.178;11.566;2022-08-30T01:00:07;96020.00;;;20.58;40.42
73671;BME280;61968;48.178;11.566;2022-08-30T01:02:34;96012.28;;;20.52;40.54
73671;BME280;61968;48.178;11.566;2022-08-30T01:05:02;96012.88;;;20.49;40.62
73671;BME280;61968;48.178;11.566;2022-08-30T01:07:30;96009.38;;;20.48;40.74
73671;BME280;61968;48.178;11.566;2022-08-30T01:09:58;96008.59;;;20.48;40.45
73671;BME280;61968;48.178;11.566;2022-08-30T01:12:27;96013.66;;;20.49;40.59
73671;BME280;61968;48.178;11.566;2022-08-30T01:14:54;96003.22;;;20.48;40.56
73671;BME280;61968;48.178;11.566;2022-08-30T01:17:21;96005.66;;;20.44;40.52
73671;BME280;61968;48.178;11.566;2022-08-30T01:19:52;96007.09;;;20.36;40.81
73671;BME280;61968;48.178;11.566;2022-08-30T01:22:24;96002.34;;;20.28;41.19
73671;BME280;61968;48.178;11.566;2022-08-30T01:24:57;96007.16;;;20.31;41.04
73671;BME280;61968;48.178;11.566;2022-08-30T01:27:25;96004.41;;;20.36;40.82
73671;BME280;61968;48.178;11.566;2022-08-30T01:29:52;96007.09;;;20.36;40.80
73671;BME280;61968;48.178;11.566;2022-08-30T01:32:23;96006.56;;;20.34;40.67
73671;BME280;61968;48.178;11.566;2022-08-30T01:34:50;96005.00;;;20.33;40.84
73671;BME280;61968;48.178;11.566;2022-08-30T01:37:20;96003.16;;;20.29;40.93
73671;BME280;61968;48.178;11.566;2022-08-30T01:39:48;96007.50;;;20.25;41.07
73671;BME280;61968;48.178;11.566;2022-08-30T01:42:16;96003.94;;;20.29;40.87
73671;BME280;61968;48.178;11.566;2022-08-30T01:44:43;96009.88;;;20.26;40.92
73671;BME280;61968;48.178;11.566;2022-08-30T01:47:11;96010.47;;;20.23;40.84
73671;BME280;61968;48.178;11.566;2022-08-30T01:49:38;96007.28;;;20.21;40.98
73671;BME280;61968;48.178;11.566;2022-08-30T01:52:06;96007.72;;;20.28;40.91
73671;BME280;61968;48.178;11.566;2022-08-30T01:54:35;96001.78;;;20.31;40.71
73671;BME280;61968;48.178;11.566;2022-08-30T01:57:02;96000.41;;;20.34;40.84
73671;BME280;61968;48.178;11.566;2022-08-30T01:59:31;96006.56;;;20.34;40.62
73671;BME280;61968;48.178;11.566;2022-08-30T02:01:57;96012.81;;;20.30;40.67
73671;BME280;61968;48.178;11.566;2022-08-30T02:04:24;96005.34;;;20.27;40.66
73671;BME280;61968;48.178;11.566;2022-08-30T02:06:51;96003.72;;;20.26;40.61
73671;BME280;61968;48.178;11.566;2022-08-30T02:09:18;96003.44;;;20.27;40.50
73671;BME280;61968;48.178;11.566;2022-08-30T02:11:44;96003.16;;;20.29;40.64
73671;BME280;61968;48.178;11.566;2022-08-30T02:14:12;96010.13;;;20.30;40.59
73671;BME280;61968;48.178;11.566;2022-08-30T02:16:40;96008.03;;;20.27;40.73
73671;BME280;61968;48.178;11.566;2022-08-30T02:19:07;96005.66;;;20.20;40.91
73671;BME280;61968;48.178;11.566;2022-08-30T02:21:34;96010.97;;;20.25;40.70
73671;BME280;61968;48.178;11.566;2022-08-30T02:24:00;96018.75;;;20.27;40.58
73671;BME280;61968;48.178;11.566;2022-08-30T02:26:27;96001.59;;;20.23;40.87
73671;BME280;61968;48.178;11.566;2022-08-30T02:28:53;96016.97;;;20.17;40.86
73671;BME280;61968;48.178;11.566;2022-08-30T02:31:20;96007.28;;;20.21;40.92
73671;BME280;61968;48.178;11.566;2022-08-30T02:33:50;96006.47;;;20.21;40.81
73671;BME280;61968;48.178;11.566;2022-08-30T02:36:18;96002.69;;;20.22;40.81
73671;BME280;61968;48.178;11.566;2022-08-30T02:38:45;96003.53;;;20.17;40.87
73671;BME280;61968;48.178;11.566;2022-08-30T02:41:12;96002.97;;;20.20;40.57
73671;BME280;61968;48.178;11.566;2022-08-30T02:43:38;96000.84;;;20.17;40.87
73671;BME280;61968;48.178;11.566;2022-08-30T02:46:05;96001.97;;;20.11;40.83
73671;BME280;61968;48.178;11.566;2022-08-30T02:48:31;96009.00;;;20.07;41.05
73671;BME280;61968;48.178;11.566;2022-08-30T02:51:04;96007.34;;;20.11;40.86
73671;BME280;61968;48.178;11.566;2022-08-30T02:53:31;96021.03;;;20.14;40.64
73671;BME280;61968;48.178;11.566;2022-08-30T02:55:58;96011.09;;;20.15;40.67
73671;BME280;61968;48.178;11.566;2022-08-30T02:58:24;96013.78;;;20.15;40.66
73671;BME280;61968;48.178;11.566;2022-08-30T03:00:51;96010.84;;;20.11;40.53
73671;BME280;61968;48.178;11.566;2022-08-30T03:03:17;96013.81;;;20.10;40.67
73671;BME280;61968;48.178;11.566;2022-08-30T03:05:44;96010.66;;;20.03;40.52
73671;BME280;61968;48.178;11.566;2022-08-30T03:08:11;96011.69;;;20.07;40.42
73671;BME280;61968;48.178;11.566;2022-08-30T03:10:38;96021.06;;;20.09;40.48
73671;BME280;61968;48.178;11.566;2022-08-30T03:13:04;96024.00;;;20.08;40.54
73671;BME280;61968;48.178;11.566;2022-08-30T03:15:32;96019.22;;;20.05;40.20
73671;BME280;61968;48.178;11.566;2022-08-30T03:17:59;96016.53;;;20.05;40.14
73671;BME280;61968;48.178;11.566;2022-08-30T03:20:26;96018.72;;;20.03;40.35
73671;BME280;61968;48.178;11.566;2022-08-30T03:22:53;96023.28;;;20.02;40.10
73671;BME280;61968;48.178;11.566;2022-08-30T03:25:21;96019.22;;;20.05;40.28
73671;BME280;61968;48.178;11.566;2022-08-30T03:27:48;96028.94;;;20.01;40.03
73671;BME280;61968;48.178;11.566;2022-08-30T03:30:17;96017.41;;;20.00;40.32
73671;BME280;61968;48.178;11.566;2022-08-30T03:32:44;96021.41;;;20.03;40.19
73671;BME280;61968;48.178;11.566;2022-08-30T03:35:12;96016.88;;;19.98;40.18
73671;BME280;61968;48.178;11.566;2022-08-30T03:37:39;96013.38;;;19.98;40.10
73671;BME280;61968;48.178;11.566;2022-08-30T03:40:07;96022.56;;;19.91;40.39
73671;BME280;61968;48.178;11.566;2022-08-30T03:42:35;96020.47;;;19.88;40.43
73671;BME280;61968;48.178;11.566;2022-08-30T03:45:03;96021.03;;;19.85;40.48
73671;BME280;61968;48.178;11.566;2022-08-30T03:47:30;96011.88;;;19.86;40.38
73671;BME280;61968;48.178;11.566;2022-08-30T03:49:57;96014.06;;;19.84;40.46
73671;BME280;61968;48.178;11.566;2022-08-30T03:52:24;96017.59;;;19.80;40.69
73671;BME280;61968;48.178;11.566;2022-08-30T03:54:50;96010.41;;;19.75;40.64
73671;BME280;61968;48.178;11.566;2022-08-30T03:57:17;96017.34;;;19.76;40.75
73671;BME280;61968;48.178;11.566;2022-08-30T03:59:44;96012.78;;;19.77;40.64
73671;BME280;61968;48.178;11.566;2022-08-30T04:02:11;96010.34;;;19.80;40.68
73671;BME280;61968;48.178;11.566;2022-08-30T04:04:37;96015.69;;;19.80;40.43
73671;BME280;61968;48.178;11.566;2022-08-30T04:07:04;96017.88;;;19.78;40.58
73671;BME280;61968;48.178;11.566;2022-08-30T04:09:30;96015.19;;;19.78;40.57
73671;BME280;61968;48.178;11.566;2022-08-30T04:11:57;96021.34;;;19.79;40.59
73671;BME280;61968;48.178;11.566;2022-08-30T04:14:24;96028.88;;;19.77;40.57
73671;BME280;61968;48.178;11.566;2022-08-30T04:16:52;96029.09;;;19.80;40.56
73671;BME280;61968;48.178;11.566;2022-08-30T04:19:18;96033.97;;;19.78;40.52
73671;BME280;61968;48.178;11.566;2022-08-30T04:21:45;96038.03;;;19.76;40.61
73671;BME280;61968;48.178;11.566;2022-08-30T04:24:11;96030.25;;;19.74;40.54
73671;BME280;61968;48.178;11.566;2022-08-30T04:26:38;96039.09;;;19.75;40.62
73671;BME280;61968;48.178;11.566;2022-08-30T04:29:05;96043.44;;;19.65;40.71
73671;BME280;61968;48.178;11.566;2022-08-30T04:31:31;96038.09;;;19.65;40.83
73671;BME280;61968;48.178;11.566;2022-08-30T04:33:59;96044.56;;;19.59;40.58
73671;BME280;61968;48.178;11.566;2022-08-30T04:36:26;96035.16;;;19.62;40.89
73671;BME280;61968;48.178;11.566;2022-08-30T04:38:52;96047.75;;;19.66;40.64
73671;BME280;61968;48.178;11.566;2022-08-30T04:41:19;96051.22;;;19.67;40.72
73671;BME280;61968;48.178;11.566;2022-08-30T04:43:48;96041.06;;;19.64;40.39
73671;BME280;61968;48.178;11.566;2022-08-30T04:46:16;96041.88;;;19.64;40.58
73671;BME280;61968;48.178;11.566;2022-08-30T04:48:43;96047.19;;;19.69;40.25
73671;BME280;61968;48.178;11.566;2022-08-30T04:51:13;96050.38;;;19.71;40.31
73671;BME280;61968;48.178;11.566;2022-08-30T04:53:40;96050.94;;;19.68;40.37
73671;BME280;61968;48.178;11.566;2022-08-30T04:56:08;96052.56;;;19.69;40.82
73671;BME280;61968;48.178;11.566;2022-08-30T04:58:36;96058.16;;;19.73;40.38
73671;BME280;61968;48.178;11.566;2022-08-30T05:01:02;96054.13;;;19.76;40.25
73671;BME280;61968;48.178;11.566;2022-08-30T05:03:29;96057.03;;;19.79;40.30
73671;BME280;61968;48.178;11.566;2022-08-30T05:05:56;96067.75;;;19.79;40.31
73671;BME280;61968;48.178;11.566;2022-08-30T05:08:23;96073.38;;;19.83;40.90
73671;BME280;61968;48.178;11.566;2022-08-30T05:10:50;96073.16;;;19.74;40.65
73671;BME280;61968;48.178;11.566;2022-08-30T05:13:19;96078.81;;;19.72;40.68
73671;BME280;61968;48.178;11.566;2022-08-30T05:15:46;96088.22;;;19.70;40.43
73671;BME280;61968;48.178;11.566;2022-08-30T05:18:13;96089.25;;;19.74;40.93
73671;BME280;61968;48.178;11.566;2022-08-30T05:20:40;96084.94;;;19.78;40.83
73671;BME280;61968;48.178;11.566;2022-08-30T05:23:07;96090.88;;;19.75;40.97
73671;BME280;61968;48.178;11.566;2022-08-30T05:25:38;96088.19;;;19.75;40.81
73671;BME280;61968;48.178;11.566;2022-08-30T05:28:05;96084.13;;;19.78;40.64
73671;BME280;61968;48.178;11.566;2022-08-30T05:30:33;96092.47;;;19.76;40.51
73671;BME280;61968;48.178;11.566;2022-08-30T05:33:04;96090.34;;;19.73;40.69
73671;BME280;61968;48.178;11.566;2022-08-30T05:35:30;96089.25;;;19.74;40.67
73671;BME280;61968;48.178;11.566;2022-08-30T05:37:57;96082.00;;;19.75;40.61
73671;BME280;61968;48.178;11.566;2022-08-30T05:40:23;96079.81;;;19.82;40.42
73671;BME280;61968;48.178;11.566;2022-08-30T05:42:51;96074.59;;;19.66;40.56
73671;BME280;61968;48.178;11.566;2022-08-30T05:45:17;96077.50;;;19.70;40.75
73671;BME280;61968;48.178;11.566;2022-08-30T05:47:44;96079.38;;;19.69;40.95
73671;BME280;61968;48.178;11.566;2022-08-30T05:50:12;96079.94;;;19.66;41.19
73671;BME280;61968;48.178;11.566;2022-08-30T05:52:40;96081.28;;;19.69;40.90
73671;BME280;61968;48.178;11.566;2022-08-30T05:55:08;96073.72;;;19.71;41.04
73671;BME280;61968;48.178;11.566;2022-08-30T05:57:36;96069.69;;;19.73;41.15
73671;BME280;61968;48.178;11.566;2022-08-30T06:00:07;96071.53;;;19.78;41.23
73671;BME280;61968;48.178;11.566;2022-08-30T06:02:34;96071.25;;;19.80;41.08
73671;BME280;61968;48.178;11.566;2022-08-30T06:05:00;96071.47;;;19.83;40.79
73671;BME280;61968;48.178;11.566;2022-08-30T06:07:27;96074.22;;;19.78;41.28
73671;BME280;61968;48.178;11.566;2022-08-30T06:09:53;96079.09;;;19.71;41.48
73671;BME280;61968;48.178;11.566;2022-08-30T06:12:20;96075.34;;;19.72;41.20
73671;BME280;61968;48.178;11.566;2022-08-30T06:14:46;96079.59;;;19.78;41.44
73671;BME280;61968;48.178;11.566;2022-08-30T06:17:14;96080.59;;;19.87;41.37
73671;BME280;61968;48.178;11.566;2022-08-30T06:19:41;96079.03;;;19.81;41.34
73671;BME280;61968;48.178;11.566;2022-08-30T06:22:07;96083.31;;;19.82;41.39
73671;BME280;61968;48.178;11.566;2022-08-30T06:24:34;96087.00;;;19.86;41.44
73671;BME280;61968;48.178;11.566;2022-08-30T06:27:01;96088.53;;;19.98;41.02
73671;BME280;61968;48.178;11.566;2022-08-30T06:29:27;96088.13;;;19.80;41.36
73671;BME280;61968;48.178;11.566;2022-08-30T06:31:55;96083.28;;;19.87;41.30
73671;BME280;61968;48.178;11.566;2022-08-30T06:34:23;96082.22;;;19.83;41.55
73671;BME280;61968;48.178;11.566;2022-08-30T06:36:51;96076.81;;;19.88;41.36
73671;BME280;61968;48.178;11.566;2022-08-30T06:39:17;96082.44;;;19.87;41.38
73671;BME280;61968;48.178;11.566;2022-08-30T06:41:44;96090.75;;;19.90;41.44
73671;BME280;61968;48.178;11.566;2022-08-30T06:44:11;96084.25;;;19.97;41.24
73671;BME280;61968;48.178;11.566;2022-08-30T06:46:38;96079.66;;;20.02;40.82
73671;BME280;61968;48.178;11.566;2022-08-30T06:49:05;96085.88;;;19.92;41.32
73671;BME280;61968;48.178;11.566;2022-08-30T06:51:36;96088.56;;;19.92;41.44
73671;BME280;61968;48.178;11.566;2022-08-30T06:54:04;96084.19;;;20.02;41.18
73671;BME280;61968;48.178;11.566;2022-08-30T06:56:31;96085.72;;;20.13;40.69
73671;BME280;61968;48.178;11.566;2022-08-30T06:58:58;96089.50;;;20.12;40.94
73671;BME280;61968;48.178;11.566;2022-08-30T07:01:26;96087.59;;;20.17;40.92
73671;BME280;61968;48.178;11.566;2022-08-30T07:03:53;96088.84;;;20.25;40.93
73671;BME280;61968;48.178;11.566;2022-08-30T07:06:21;96084.28;;;20.26;41.08
73671;BME280;61968;48.178;11.566;2022-08-30T07:08:49;96088.22;;;20.33;40.79
73671;BME280;61968;48.178;11.566;2022-08-30T07:11:24;96082.56;;;20.35;40.70
73671;BME280;61968;48.178;11.566;2022-08-30T07:13:51;96079.59;;;20.36;40.74
73671;BME280;61968;48.178;11.566;2022-08-30T07:16:17;96080.63;;;20.40;40.67
73671;BME280;61968;48.178;11.566;2022-08-30T07:18:44;96085.19;;;20.40;40.51
73671;BME280;61968;48.178;11.566;2022-08-30T07:21:19;96081.69;;;20.45;40.55
73671;BME280;61968;48.178;11.566;2022-08-30T07:23:47;96085.59;;;20.52;40.38
73671;BME280;61968;48.178;11.566;2022-08-30T07:26:17;96086.34;;;20.58;40.28
73671;BME280;61968;48.178;11.566;2022-08-30T07:28:45;96095.16;;;20.63;40.09
73671;BME280;61968;48.178;11.566;2022-08-30T07:31:13;96089.00;;;20.63;40.25
73671;BME280;61968;48.178;11.566;2022-08-30T07:33:40;96080.84;;;20.68;40.20
73671;BME280;61968;48.178;11.566;2022-08-30T07:36:08;96083.50;;;20.73;40.06
73671;BME280;61968;48.178;11.566;2022-08-30T07:38:35;96078.13;;;20.73;40.15
73671;BME280;61968;48.178;11.566;2022-08-30T07:41:02;96087.19;;;20.77;40.24
73671;BME280;61968;48.178;11.566;2022-08-30T07:43:31;96084.22;;;20.84;40.29
73671;BME280;61968;48.178;11.566;2022-08-30T07:46:00;96088.72;;;20.89;40.46
73671;BME280;61968;48.178;11.566;2022-08-30T07:48:27;96086.03;;;20.89;40.29
73671;BME280;61968;48.178;11.566;2022-08-30T07:50:54;96083.63;;;20.87;40.40
73671;BME280;61968;48.178;11.566;2022-08-30T07:53:20;96079.63;;;20.84;40.54
73671;BME280;61968;48.178;11.566;2022-08-30T07:55:47;96081.75;;;20.88;40.40
73671;BME280;61968;48.178;11.566;2022-08-30T07:58:13;96084.44;;;20.88;40.64
73671;BME280;61968;48.178;11.566;2022-08-30T08:00:41;96084.44;;;20.88;40.85
73671;BME280;61968;48.178;11.566;2022-08-30T08:03:08;96080.06;;;20.92;40.59
73671;BME280;61968;48.178;11.566;2022-08-30T08:05:36;96088.66;;;20.94;40.37
73671;BME280;61968;48.178;11.566;2022-08-30T08:08:03;96087.50;;;21.00;40.42
73671;BME280;61968;48.178;11.566;2022-08-30T08:10:30;96087.13;;;21.06;40.32
73671;BME280;61968;48.178;11.566;2022-08-30T08:12:56;96081.91;;;21.15;39.78
73671;BME280;61968;48.178;11.566;2022-08-30T08:15:23;96087.06;;;21.12;39.90
73671;BME280;61968;48.178;11.566;2022-08-30T08:17:51;96091.78;;;21.20;39.82
73671;BME280;61968;48.178;11.566;2022-08-30T08:20:21;96086.41;;;21.20;40.07
73671;BME280;61968;48.178;11.566;2022-08-30T08:22:49;96084.09;;;21.13;39.98
73671;BME280;61968;48.178;11.566;2022-08-30T08:25:16;96077.06;;;21.17;39.96
73671;BME280;61968;48.178;11.566;2022-08-30T08:27:45;96072.75;;;21.16;40.25
73671;BME280;61968;48.178;11.566;2022-08-30T08:30:12;96082.34;;;21.22;39.92
73671;BME280;61968;48.178;11.566;2022-08-30T08:32:38;96086.56;;;21.28;39.73
73671;BME280;61968;48.178;11.566;2022-08-30T08:35:07;96084.91;;;21.33;39.69
73671;BME280;61968;48.178;11.566;2022-08-30T08:37:35;96085.19;;;21.31;38.47
73671;BME280;61968;48.178;11.566;2022-08-30T08:40:02;96090.50;;;21.36;39.59
73671;BME280;61968;48.178;11.566;2022-08-30T08:42:34;96090.19;;;21.38;39.70
73671;BME280;61968;48.178;11.566;2022-08-30T08:45:04;96092.88;;;21.38;39.55
73671;BME280;61968;48.178;11.566;2022-08-30T08:47:36;96095.56;;;21.38;39.40
73671;BME280;61968;48.178;11.566;2022-08-30T08:50:09;96100.34;;;21.46;38.71
73671;BME280;61968;48.178;11.566;2022-08-30T08:52:46;96102.22;;;21.45;39.07
73671;BME280;61968;48.178;11.566;2022-08-30T08:55:30;96100.84;;;21.48;39.53
73671;BME280;61968;48.178;11.566;2022-08-30T08:57:57;96098.97;;;21.48;38.89
73671;BME280;61968;48.178;11.566;2022-08-30T09:00:24;96096.56;;;21.47;39.15
73671;BME280;61968;48.178;11.566;2022-08-30T09:02:56;96095.84;;;21.60;39.03
73671;BME280;61968;48.178;11.566;2022-08-30T09:05:27;96086.66;;;21.61;37.60
73671;BME280;61968;48.178;11.566;2022-08-30T09:07:58;96084.47;;;21.63;37.73
73671;BME280;61968;48.178;11.566;2022-08-30T09:10:27;96085.88;;;21.61;38.45
73671;BME280;61968;48.178;11.566;2022-08-30T09:12:54;96082.88;;;21.62;38.35
73671;BME280;61968;48.178;11.566;2022-08-30T09:15:23;96083.22;;;21.74;37.94
73671;BME280;61968;48.178;11.566;2022-08-30T09:17:53;96085.81;;;21.80;37.87
73671;BME280;61968;48.178;11.566;2022-08-30T09:20:27;96078.94;;;21.73;38.02
73671;BME280;61968;48.178;11.566;2022-08-30T09:22:54;96075.72;;;21.71;38.23
73671;BME280;61968;48.178;11.566;2022-08-30T09:25:24;96078.13;;;21.73;38.43
73671;BME280;61968;48.178;11.566;2022-08-30T09:27:52;96075.56;;;21.82;38.08
73671;BME280;61968;48.178;11.566;2022-08-30T09:30:22;96078.78;;;21.84;37.89
73671;BME280;61968;48.178;11.566;2022-08-30T09:32:51;96071.72;;;21.88;37.76
73671;BME280;61968;48.178;11.566;2022-08-30T09:35:20;96075.00;;;21.85;37.58
73671;BME280;61968;48.178;11.566;2022-08-30T09:37:53;96071.72;;;21.88;37.09
73671;BME280;61968;48.178;11.566;2022-08-30T09:40:27;96075.72;;;21.90;37.40
73671;BME280;61968;48.178;11.566;2022-08-30T09:43:03;96066.72;;;21.81;35.64
73671;BME280;61968;48.178;11.566;2022-08-30T09:45:33;96062.63;;;21.84;37.07
73671;BME280;61968;48.178;11.566;2022-08-30T09:48:01;96053.97;;;21.87;37.28
73671;BME280;61968;48.178;11.566;2022-08-30T09:50:46;96059.13;;;21.83;37.51
73671;BME280;61968;48.178;11.566;2022-08-30T09:53:19;96059.63;;;21.85;35.87
73671;BME280;61968;48.178;11.566;2022-08-30T09:55:55;96055.63;;;21.83;36.27
73671;BME280;61968;48.178;11.566;2022-08-30T09:58:35;96052.34;;;21.86;35.64
73671;BME280;61968;48.178;11.566;2022-08-30T10:01:09;96046.97;;;21.86;36.24
73671;BME280;61968;48.178;11.566;2022-08-30T10:03:41;96049.75;;;21.81;35.42
73671;BME280;61968;48.178;11.566;2022-08-30T10:06:20;96041.69;;;21.81;34.93
73671;BME280;61968;48.178;11.566;2022-08-30T10:08:59;96040.31;;;21.97;35.60
73671;BME280;61968;48.178;11.566;2022-08-30T10:11:35;96036.47;;;22.03;35.69
73671;BME280;61968;48.178;11.566;2022-08-30T10:14:25;96039.97;;;22.04;36.13
73671;BME280;61968;48.178;11.566;2022-08-30T10:16:58;96027.81;;;22.06;35.81
73671;BME280;61968;48.178;11.566;2022-08-30T10:19:39;96037.31;;;22.17;36.59
73671;BME280;61968;48.178;11.566;2022-08-30T10:22:10;96033.84;;;21.98;35.81
73671;BME280;61968;48.178;11.566;2022-08-30T10:24:42;96025.63;;;22.08;34.33
73671;BME280;61968;48.178;11.566;2022-08-30T10:27:13;96026.31;;;22.14;35.08
73671;BME280;61968;48.178;11.566;2022-08-30T10:29:45;96016.34;;;22.14;36.04
73671;BME280;61968;48.178;11.566;2022-08-30T10:32:17;96008.47;;;22.18;35.50
73671;BME280;61968;48.178;11.566;2022-08-30T10:34:49;96010.84;;;22.19;35.25
73671;BME280;61968;48.178;11.566;2022-08-30T10:37:19;96018.94;;;22.06;33.67
73671;BME280;61968;48.178;11.566;2022-08-30T10:39:53;96013.16;;;22.12;33.51
73671;BME280;61968;48.178;11.566;2022-08-30T10:42:21;96012.28;;;22.17;34.27
73671;BME280;61968;48.178;11.566;2022-08-30T10:44:52;96006.69;;;22.27;33.56
73671;BME280;61968;48.178;11.566;2022-08-30T10:47:27;96004.97;;;22.31;33.86
73671;BME280;61968;48.178;11.566;2022-08-30T10:50:04;96005.34;;;22.11;32.99
73671;BME280;61968;48.178;11.566;2022-08-30T10:52:37;96002.09;;;22.28;33.57
73671;BME280;61968;48.178;11.566;2022-08-30T10:55:09;96006.38;;;22.29;34.23
73671;BME280;61968;48.178;11.566;2022-08-30T10:57:37;95994.50;;;22.30;34.00
73671;BME280;61968;48.178;11.566;2022-08-30T11:00:07;95993.69;;;22.43;31.18
73671;BME280;61968;48.178;11.566;2022-08-30T11:05:27;96001.09;;;22.51;32.53
73671;BME280;61968;48.178;11.566;2022-08-30T11:08:06;95997.22;;;22.30;31.51
73671;BME280;61968;48.178;11.566;2022-08-30T11:10:45;96001.28;;;22.41;32.42
73671;BME280;61968;48.178;11.566;2022-08-30T11:13:16;96001.69;;;22.48;32.23
73671;BME280;61968;48.178;11.566;2022-08-30T11:15:55;95999.19;;;22.52;31.88
73671;BME280;61968;48.178;11.566;2022-08-30T11:18:24;95988.72;;;22.64;32.06
73671;BME280;61968;48.178;11.566;2022-08-30T11:20:53;95999.41;;;22.69;32.09
73671;BME280;61968;48.178;11.566;2022-08-30T11:23:29;95996.09;;;22.72;32.64
73671;BME280;61968;48.178;11.566;2022-08-30T11:26:00;96000.28;;;22.64;30.59
73671;BME280;61968;48.178;11.566;2022-08-30T11:29:04;95988.72;;;22.78;31.25
73671;BME280;61968;48.178;11.566;2022-08-30T11:31:37;95985.50;;;22.76;31.61
73671;BME280;61968;48.178;11.566;2022-08-30T11:34:05;95982.63;;;22.72;31.73
73671;BME280;61968;48.178;11.566;2022-08-30T11:37:06;95983.31;;;22.78;32.58
73671;BME280;61968;48.178;11.566;2022-08-30T11:39:53;95982.97;;;22.93;31.87
73671;BME280;61968;48.178;11.566;2022-08-30T11:42:32;95983.06;;;23.02;32.57
73671;BME280;61968;48.178;11.566;2022-08-30T11:48:04;95986.59;;;23.25;32.62
73671;BME280;61968;48.178;11.566;2022-08-30T11:50:35;95980.28;;;23.29;32.39
73671;BME280;61968;48.178;11.566;2022-08-30T11:53:13;95982.56;;;23.36;31.64
73671;BME280;61968;48.178;11.566;2022-08-30T11:55:51;95986.53;;;23.39;32.40
73671;BME280;61968;48.178;11.566;2022-08-30T11:58:35;95988.31;;;23.43;32.65
73671;BME280;61968;48.178;11.566;2022-08-30T12:01:20;95986.38;;;23.35;32.05
73671;BME280;61968;48.178;11.566;2022-08-30T12:03:55;95992.19;;;23.51;31.84
73671;BME280;61968;48.178;11.566;2022-08-30T12:06:43;95988.69;;;23.50;32.62
73671;BME280;61968;48.178;11.566;2022-08-30T12:12:49;95978.34;;;23.75;31.70
73671;BME280;61968;48.178;11.566;2022-08-30T12:18:31;95979.44;;;23.74;31.16
73671;BME280;61968;48.178;11.566;2022-08-30T12:21:26;95975.13;;;23.87;31.05
73671;BME280;61968;48.178;11.566;2022-08-30T12:23:58;95972.88;;;23.89;30.80
73671;BME280;61968;48.178;11.566;2022-08-30T12:26:32;95972.13;;;23.97;31.24
73671;BME280;61968;48.178;11.566;2022-08-30T12:29:16;95971.00;;;23.98;30.67
73671;BME280;61968;48.178;11.566;2022-08-30T12:31:46;95968.69;;;24.05;30.88
73671;BME280;61968;48.178;11.566;2022-08-30T12:34:25;95964.28;;;24.18;30.93
73671;BME280;61968;48.178;11.566;2022-08-30T12:36:56;95967.00;;;24.26;30.64
73671;BME280;61968;48.178;11.566;2022-08-30T12:39:25;95961.94;;;24.34;30.47
73671;BME280;61968;48.178;11.566;2022-08-30T12:41:52;95960.53;;;24.36;29.83
73671;BME280;61968;48.178;11.566;2022-08-30T12:44:22;95960.41;;;24.41;29.12
73671;BME280;61968;48.178;11.566;2022-08-30T12:46:55;95962.66;;;24.48;29.76
73671;BME280;61968;48.178;11.566;2022-08-30T12:49:25;95959.47;;;24.55;29.91
73671;BME280;61968;48.178;11.566;2022-08-30T12:51:53;95958.22;;;24.61;29.74
73671;BME280;61968;48.178;11.566;2022-08-30T12:54:22;95964.44;;;24.70;30.06
73671;BME280;61968;48.178;11.566;2022-08-30T12:56:52;95956.81;;;24.72;29.74
73671;BME280;61968;48.178;11.566;2022-08-30T12:59:41;95954.88;;;24.73;30.20
73671;BME280;61968;48.178;11.566;2022-08-30T13:02:12;95955.69;;;24.82;29.89
73671;BME280;61968;48.178;11.566;2022-08-30T13:04:39;95958.25;;;24.87;29.90
73671;BME280;61968;48.178;11.566;2022-08-30T13:07:06;95954.47;;;24.97;30.33
73671;BME280;61968;48.178;11.566;2022-08-30T13:09:34;95954.31;;;25.02;29.66
73671;BME280;61968;48.178;11.566;2022-08-30T13:12:03;95957.47;;;25.04;28.79
73671;BME280;61968;48.178;11.566;2022-08-30T13:14:34;95948.09;;;25.01;28.50